createdAt,value
2022-11-12T00:01:38.015Z,12.058618
2022-11-12T00:06:39.937Z,11.977418
2022-11-12T00:11:42.152Z,12.234438
2022-11-12T00:16:44.008Z,12.365616
2022-11-12T00:21:45.807Z,12.264712
2022-11-12T00:26:47.735Z,12.708694
2022-11-12T00:31:49.641Z,12.500388
2022-11-12T00:36:51.314Z,11.883856
2022-11-12T00:41:53.347Z,12.698272
2022-11-12T00:46:54.886Z,12.202386
2022-11-12T00:51:56.408Z,13.042952
2022-11-12T00:56:58.452Z,13.170058
2022-11-12T01:02:00.005Z,13.041798
2022-11-12T01:07:01.648Z,12.86245
2022-11-12T01:12:03.675Z,13.162282
2022-11-12T01:17:05.249Z,12.992812
2022-11-12T01:22:07.028Z,13.133148
2022-11-12T01:27:08.813Z,13.657014
2022-11-12T01:32:10.354Z,13.498848
2022-11-12T01:37:11.882Z,13.130068
2022-11-12T01:42:13.705Z,13.38234
2022-11-12T01:47:15.464Z,13.546422
2022-11-12T01:52:17.105Z,13.399898
2022-11-12T01:57:18.676Z,13.59876
2022-11-12T02:02:20.148Z,12.711244
2022-11-12T02:07:21.633Z,13.696298
2022-11-12T02:12:23.647Z,13.166692
2022-11-12T02:17:25.165Z,13.183464
2022-11-12T02:22:26.643Z,13.67502
2022-11-12T02:27:28.126Z,13.946438
2022-11-12T02:32:29.698Z,13.408284
2022-11-12T02:37:31.321Z,13.93329
2022-11-12T02:42:33.170Z,13.877682
2022-11-12T02:47:34.935Z,14.028968
2022-11-12T02:52:36.638Z,14.09527
2022-11-12T02:57:38.455Z,14.189008
2022-11-12T03:02:40.376Z,14.42794
2022-11-12T03:07:41.891Z,14.41646
2022-11-12T03:12:44.105Z,14.304538
2022-11-12T03:17:46.658Z,13.90292
2022-11-12T03:23:04.908Z,14.320252
2022-11-12T03:28:14.850Z,14.32952
2022-11-12T03:33:20.777Z,14.353348
2022-11-12T03:38:24.009Z,14.593882
2022-11-12T03:43:31.392Z,14.145218
2022-11-12T03:48:48.043Z,14.920826
2022-11-12T03:53:54.194Z,14.400746
2022-11-12T03:58:56.510Z,13.781106
2022-11-12T04:04:01.954Z,14.888694
2022-11-12T04:09:09.547Z,14.946514
2022-11-12T04:14:15.224Z,14.277984
2022-11-12T04:19:18.065Z,14.005574
2022-11-12T04:24:28.539Z,14.30409
2022-11-12T04:29:46.612Z,14.87431
2022-11-12T04:34:49.203Z,14.995066
2022-11-12T04:45:16.221Z,15.383358
2022-11-12T04:51:00.197Z,15.608532
2022-11-12T04:56:16.237Z,16.147324
2022-11-12T05:01:21.548Z,15.72451
2022-11-12T05:06:30.197Z,15.897956
2022-11-12T05:11:36.431Z,16.152792
2022-11-12T05:16:49.672Z,17.201882
2022-11-12T05:21:52.083Z,17.161106
2022-11-12T05:27:00.081Z,16.419108
2022-11-12T05:32:19.158Z,17.14911
2022-11-12T05:37:55.036Z,15.707738
2022-11-12T05:42:58.521Z,16.355562
2022-11-12T05:48:04.061Z,16.848192
2022-11-12T05:53:05.857Z,16.683566
2022-11-12T05:58:07.377Z,16.252718
2022-11-12T06:03:08.819Z,16.733434
2022-11-12T06:08:10.542Z,16.847214
2022-11-12T06:13:11.996Z,17.540578
2022-11-12T06:18:13.494Z,16.453534
2022-11-12T06:23:15.544Z,16.932404
2022-11-12T06:28:16.968Z,17.157224
2022-11-12T06:33:18.514Z,17.33774
2022-11-12T06:38:20.280Z,17.550036
2022-11-12T06:43:21.820Z,16.782962
2022-11-12T06:48:23.373Z,16.31009
2022-11-12T06:53:25.395Z,17.0107
2022-11-12T06:58:27.093Z,17.119528
2022-11-12T07:03:28.686Z,16.903718
2022-11-12T07:08:30.590Z,17.063296
2022-11-12T07:13:32.152Z,16.53483
2022-11-12T07:18:33.894Z,16.814118
2022-11-12T07:23:36.114Z,17.205776
2022-11-12T07:28:37.903Z,16.71772
2022-11-12T07:33:39.910Z,16.724966
2022-11-12T07:38:41.719Z,16.795406
2022-11-12T07:43:43.568Z,16.482396
2022-11-12T07:48:45.446Z,16.910516
2022-11-12T07:53:47.396Z,17.040092
2022-11-12T07:58:48.866Z,16.724708
2022-11-12T08:03:50.363Z,16.65956
2022-11-12T08:08:52.160Z,17.11353
2022-11-12T08:13:53.937Z,17.217514
2022-11-12T08:18:56.747Z,17.517198
2022-11-12T08:23:58.381Z,17.606784
2022-11-12T08:29:03.932Z,17.251316
2022-11-12T08:34:08.469Z,16.988894
2022-11-12T08:39:10.014Z,17.049794
2022-11-12T08:44:11.830Z,16.940342
2022-11-12T08:49:13.599Z,17.718014
2022-11-12T08:54:15.293Z,17.62665
2022-11-12T08:59:17.078Z,17.65763
2022-11-12T09:04:18.686Z,17.859164
2022-11-12T09:09:20.658Z,18.279332
2022-11-12T09:14:22.191Z,17.732058
2022-11-12T09:19:24.313Z,18.03641
2022-11-12T09:24:26.301Z,17.761002
2022-11-12T09:29:28.202Z,17.58685
2022-11-12T09:34:29.993Z,17.44076
2022-11-12T09:39:31.806Z,17.63186
2022-11-12T09:44:36.764Z,17.896236
2022-11-12T09:49:40.733Z,17.890754
2022-11-12T09:54:42.560Z,18.207142
2022-11-12T09:59:44.376Z,18.01497
2022-11-12T10:04:46.237Z,18.360994
2022-11-12T10:09:48.035Z,17.937908
2022-11-12T10:14:49.941Z,18.413074
2022-11-12T10:19:51.895Z,18.453226
2022-11-12T10:24:53.792Z,18.277134
2022-11-12T10:29:55.756Z,18.12027
2022-11-12T10:34:57.959Z,18.566736
2022-11-12T10:39:59.801Z,18.520762
2022-11-12T10:45:01.731Z,18.638342
2022-11-12T10:50:03.668Z,18.959032
2022-11-12T10:55:05.085Z,18.653174
2022-11-12T11:00:06.653Z,18.34087
2022-11-12T11:05:08.175Z,18.052476
2022-11-12T11:10:09.827Z,16.065676
2022-11-12T11:15:11.428Z,15.31106
2022-11-12T11:20:13.366Z,15.656188
2022-11-12T11:25:14.996Z,16.212282
2022-11-12T11:30:16.910Z,15.921446
2022-11-12T11:35:18.390Z,16.096126
2022-11-12T11:40:20.463Z,16.086424
2022-11-12T11:45:22.286Z,15.316094
2022-11-12T11:50:24.145Z,15.290326
2022-11-12T11:55:25.911Z,15.416984
2022-11-12T12:00:27.741Z,14.976082
2022-11-12T12:05:29.427Z,14.9135
2022-11-12T12:10:53.312Z,15.215734
2022-11-12T12:16:03.416Z,15.220592
2022-11-12T12:21:05.325Z,15.315918
2022-11-12T12:26:07.487Z,14.997264
2022-11-12T12:31:09.240Z,15.554688
2022-11-12T12:36:10.724Z,14.678624
2022-11-12T12:41:12.601Z,15.56758
2022-11-12T12:46:14.557Z,15.047404
2022-11-12T12:51:16.614Z,15.814192
2022-11-12T12:56:18.532Z,16.248662
2022-11-12T13:01:20.332Z,16.868044
2022-11-12T13:06:21.870Z,16.294378
2022-11-12T13:11:23.501Z,16.132846
2022-11-12T13:16:25.160Z,16.345128
2022-11-12T13:21:26.806Z,16.046788
2022-11-12T13:26:28.331Z,16.225878
2022-11-12T13:31:30.083Z,16.356702
2022-11-12T13:36:31.548Z,16.838394
2022-11-12T13:41:33.228Z,16.411428
2022-11-12T13:46:35.357Z,16.662288
2022-11-12T13:51:39.398Z,17.026414
2022-11-12T13:56:41.632Z,15.78233
2022-11-12T14:01:43.461Z,16.556812
2022-11-12T14:06:45.418Z,16.722578
2022-11-12T14:11:47.362Z,16.72726
2022-11-12T14:16:49.086Z,16.125436
2022-11-12T14:21:50.956Z,16.493524
2022-11-12T14:26:53.163Z,16.190842
2022-11-12T14:31:55.169Z,16.843252
2022-11-12T14:36:58.487Z,16.955432
2022-11-12T14:42:00.867Z,16.645082
2022-11-12T14:47:02.688Z,16.705454
2022-11-12T14:52:04.825Z,16.756828
2022-11-12T14:57:06.463Z,16.182184
2022-11-12T15:02:28.644Z,16.28458
2022-11-12T15:07:34.507Z,16.735022
2022-11-12T15:12:36.285Z,16.587262
2022-11-12T15:17:38.183Z,16.332874
2022-11-12T15:22:40.015Z,16.822586
2022-11-12T15:27:48.017Z,16.38547
2022-11-12T15:33:00.252Z,15.973606
2022-11-12T15:38:12.174Z,16.499074
2022-11-12T15:43:13.893Z,16.088446
2022-11-12T15:48:15.459Z,15.673408
2022-11-12T15:53:17.314Z,16.236476
2022-11-12T15:58:19.101Z,15.657436
2022-11-12T16:03:20.859Z,15.466322
2022-11-12T16:08:22.916Z,15.886314
2022-11-12T16:13:25.006Z,15.432168
2022-11-12T16:18:27.179Z,15.189422
2022-11-12T16:23:29.292Z,15.546654
2022-11-12T16:28:31.236Z,15.816308
2022-11-12T16:33:33.002Z,15.781448
2022-11-12T16:38:34.943Z,15.864426
2022-11-12T16:43:37.186Z,15.575598
2022-11-12T16:48:39.265Z,15.574186
2022-11-12T16:53:41.219Z,16.250954
2022-11-12T16:58:43.049Z,15.504276
2022-11-12T17:03:45.445Z,16.031684
2022-11-12T17:08:47.603Z,15.40701
2022-11-12T17:13:49.561Z,14.66671
2022-11-12T17:18:51.497Z,15.444788
2022-11-12T17:23:53.578Z,15.587702
2022-11-12T17:29:02.206Z,15.180778
2022-11-12T17:34:04.420Z,14.510374
2022-11-12T17:39:07.291Z,14.705098
2022-11-12T17:44:10.311Z,14.79946
2022-11-12T17:49:11.894Z,15.21785
2022-11-12T17:54:13.640Z,14.6991
2022-11-12T17:59:15.382Z,14.829028
2022-11-12T18:04:17.292Z,15.438518
2022-11-12T18:09:19.651Z,14.062064
2022-11-12T18:14:21.419Z,14.327932
2022-11-12T18:19:23.292Z,15.268872
2022-11-12T18:24:25.410Z,15.002474
2022-11-12T18:29:27.234Z,15.24389
2022-11-12T18:34:28.935Z,14.86477
2022-11-12T18:39:31.532Z,15.129146
2022-11-12T18:44:33.345Z,15.296676
2022-11-12T18:49:35.359Z,15.669432
2022-11-12T18:54:37.581Z,14.991266
2022-11-12T18:59:40.400Z,15.01846
2022-11-12T19:04:45.366Z,15.023928
2022-11-12T19:09:47.939Z,14.599798
2022-11-12T19:14:50.222Z,14.034098
2022-11-12T19:19:52.324Z,14.601386
2022-11-12T19:24:54.246Z,14.65717
2022-11-12T19:29:59.935Z,15.02481
2022-11-12T19:35:05.031Z,15.080676
2022-11-12T19:40:07.016Z,14.732902
2022-11-12T19:45:08.625Z,14.690972
2022-11-12T19:52:07.379Z,14.8209
2022-11-12T19:57:09.305Z,14.106816
2022-11-12T20:02:11.029Z,14.404546
2022-11-12T20:07:12.664Z,14.67686
2022-11-12T20:12:14.888Z,15.775804
2022-11-12T20:17:16.474Z,15.385556
2022-11-12T20:22:18.081Z,15.101328
2022-11-12T20:27:20.849Z,15.040428
2022-11-12T20:32:22.531Z,15.148116
2022-11-12T20:37:24.235Z,15.122524
2022-11-12T20:42:26.250Z,14.976964
2022-11-12T20:47:33.939Z,14.793096
2022-11-12T20:52:35.974Z,15.182366
2022-11-12T20:57:37.775Z,14.67994
2022-11-12T21:02:39.437Z,14.28451
2022-11-12T21:07:43.171Z,14.257588
2022-11-12T21:12:45.247Z,14.226962
2022-11-12T21:17:47.208Z,15.29403
2022-11-12T21:22:49.126Z,14.65276
2022-11-12T21:27:50.919Z,14.498284
2022-11-12T21:32:52.771Z,14.12253
2022-11-12T21:38:26.314Z,14.767328
2022-11-12T21:43:29.093Z,14.306912
2022-11-12T21:48:32.380Z,13.997364
2022-11-12T21:53:33.923Z,14.39175
2022-11-12T21:58:36.491Z,14.383092
2022-11-12T22:03:38.929Z,14.900526
2022-11-12T22:08:40.415Z,14.77528
2022-11-12T22:13:42.249Z,15.015366
2022-11-12T22:18:44.465Z,14.571994
2022-11-12T22:23:46.388Z,15.429956
2022-11-12T22:28:48.015Z,15.167982
2022-11-12T22:33:49.515Z,14.431034
2022-11-12T22:38:51.215Z,14.938032
2022-11-12T22:43:52.952Z,15.197102
2022-11-12T22:48:54.483Z,15.01333
2022-11-12T22:53:55.986Z,15.172216
2022-11-12T22:58:57.645Z,15.111492
2022-11-12T23:03:59.318Z,15.593428
2022-11-12T23:09:00.745Z,15.127368
2022-11-12T23:14:02.568Z,15.297286
2022-11-12T23:19:04.066Z,15.147234
2022-11-12T23:24:05.751Z,15.408516
2022-11-12T23:29:07.549Z,15.1181
2022-11-12T23:34:09.042Z,15.460148
2022-11-12T23:39:10.488Z,15.14361
2022-11-12T23:44:12.816Z,15.87501
2022-11-12T23:49:14.778Z,15.890194
2022-11-12T23:54:16.327Z,15.905636
2022-11-12T23:59:18.580Z,15.648154
